sensor_id;sensor_type;location;lat;lon;timestamp;temperature;humidity
34542;DHT22;20784;51.332;12.410;2022-10-31T00:00:57;15.80;99.90
34542;DHT22;20784;51.332;12.410;2022-10-31T00:03:23;15.80;99.90
34542;DHT22;20784;51.332;12.410;2022-10-31T00:05:52;15.70;99.90
34542;DHT22;20784;51.332;12.410;2022-10-31T00:08:19;15.60;99.90
34542;DHT22;20784;51.332;12.410;2022-10-31T00:10:45;15.70;99.90
34542;DHT22;20784;51.332;12.410;2022-10-31T00:13:13;15.80;99.90
34542;DHT22;20784;51.332;12.410;2022-10-31T00:15:39;15.60;99.90
34542;DHT22;20784;51.332;12.410;2022-10-31T00:18:06;15.60;99.90
34542;DHT22;20784;51.332;12.410;2022-10-31T00:20:32;15.60;99.90
34542;DHT22;20784;51.332;12.410;2022-10-31T00:23:02;15.60;99.90
34542;DHT22;20784;51.332;12.410;2022-10-31T00:25:33;15.60;99.90
34542;DHT22;20784;51.332;12.410;2022-10-31T00:28:00;15.50;99.90
34542;DHT22;20784;51.332;12.410;2022-10-31T00:30:26;15.50;99.90
34542;DHT22;20784;51.332;12.410;2022-10-31T00:32:51;15.50;99.90
34542;DHT22;20784;51.332;12.410;2022-10-31T00:35:20;15.50;99.90
34542;DHT22;20784;51.332;12.410;2022-10-31T00:37:45;15.50;99.90
34542;DHT22;20784;51.332;12.410;2022-10-31T00:40:11;15.50;99.90
34542;DHT22;20784;51.332;12.410;2022-10-31T00:42:37;15.50;99.90
34542;DHT22;20784;51.332;12.410;2022-10-31T00:45:04;15.50;99.90
34542;DHT22;20784;51.332;12.410;2022-10-31T00:47:29;15.50;99.90
34542;DHT22;20784;51.332;12.410;2022-10-31T00:49:55;15.50;99.90
34542;DHT22;20784;51.332;12.410;2022-10-31T00:52:21;15.40;99.90
34542;DHT22;20784;51.332;12.410;2022-10-31T00:54:46;15.40;99.90
34542;DHT22;20784;51.332;12.410;2022-10-31T00:57:12;15.30;99.90
34542;DHT22;20784;51.332;12.410;2022-10-31T00:59:38;15.30;99.90
34542;DHT22;20784;51.332;12.410;2022-10-31T01:02:03;15.20;99.90
34542;DHT22;20784;51.332;12.410;2022-10-31T01:04:29;15.20;99.90
34542;DHT22;20784;51.332;12.410;2022-10-31T01:06:55;15.10;99.90
34542;DHT22;20784;51.332;12.410;2022-10-31T01:09:20;15.10;99.90
34542;DHT22;20784;51.332;12.410;2022-10-31T01:11:46;15.10;99.90
34542;DHT22;20784;51.332;12.410;2022-10-31T01:14:14;15.10;99.90
34542;DHT22;20784;51.332;12.410;2022-10-31T01:16:40;15.20;99.90
34542;DHT22;20784;51.332;12.410;2022-10-31T01:19:05;15.10;99.90
34542;DHT22;20784;51.332;12.410;2022-10-31T01:21:31;15.10;99.90
34542;DHT22;20784;51.332;12.410;2022-10-31T01:23:57;15.10;99.90
34542;DHT22;20784;51.332;12.410;2022-10-31T01:26:26;15.00;99.90
34542;DHT22;20784;51.332;12.410;2022-10-31T01:28:59;15.00;99.90
34542;DHT22;20784;51.332;12.410;2022-10-31T01:31:30;15.00;99.90
34542;DHT22;20784;51.332;12.410;2022-10-31T01:33:56;15.00;99.90
34542;DHT22;20784;51.332;12.410;2022-10-31T01:36:31;15.10;99.90
34542;DHT22;20784;51.332;12.410;2022-10-31T01:39:03;15.00;99.90
34542;DHT22;20784;51.332;12.410;2022-10-31T01:41:31;15.00;99.90
34542;DHT22;20784;51.332;12.410;2022-10-31T01:46:37;14.90;99.90
34542;DHT22;20784;51.332;12.410;2022-10-31T01:49:14;14.90;99.90
34542;DHT22;20784;51.332;12.410;2022-10-31T01:51:46;14.90;99.90
34542;DHT22;20784;51.332;12.410;2022-10-31T01:54:15;14.90;99.90
34542;DHT22;20784;51.332;12.410;2022-10-31T01:56:43;14.90;99.90
34542;DHT22;20784;51.332;12.410;2022-10-31T01:59:12;14.90;99.90
34542;DHT22;20784;51.332;12.410;2022-10-31T02:01:39;14.80;99.90
34542;DHT22;20784;51.332;12.410;2022-10-31T02:04:06;14.80;99.90
34542;DHT22;20784;51.332;12.410;2022-10-31T02:06:41;14.80;99.90
34542;DHT22;20784;51.332;12.410;2022-10-31T02:09:11;14.80;99.90
34542;DHT22;20784;51.332;12.410;2022-10-31T02:11:38;14.80;99.90
34542;DHT22;20784;51.332;12.410;2022-10-31T02:14:03;14.80;99.90
34542;DHT22;20784;51.332;12.410;2022-10-31T02:16:29;14.80;99.90
34542;DHT22;20784;51.332;12.410;2022-10-31T02:18:55;14.70;99.90
34542;DHT22;20784;51.332;12.410;2022-10-31T02:21:37;14.80;99.90
34542;DHT22;20784;51.332;12.410;2022-10-31T02:24:40;14.80;99.90
34542;DHT22;20784;51.332;12.410;2022-10-31T02:29:45;14.70;99.90
34542;DHT22;20784;51.332;12.410;2022-10-31T02:38:09;14.70;99.90
34542;DHT22;20784;51.332;12.410;2022-10-31T02:44:00;14.70;99.90
34542;DHT22;20784;51.332;12.410;2022-10-31T02:46:38;14.50;99.90
34542;DHT22;20784;51.332;12.410;2022-10-31T02:49:33;14.50;99.90
34542;DHT22;20784;51.332;12.410;2022-10-31T02:51:58;14.50;99.90
34542;DHT22;20784;51.332;12.410;2022-10-31T02:54:25;14.50;99.90
34542;DHT22;20784;51.332;12.410;2022-10-31T02:56:58;14.50;99.90
34542;DHT22;20784;51.332;12.410;2022-10-31T02:59:26;14.50;99.90
34542;DHT22;20784;51.332;12.410;2022-10-31T03:02:09;14.50;99.90
34542;DHT22;20784;51.332;12.410;2022-10-31T03:05:09;14.50;99.90
34542;DHT22;20784;51.332;12.410;2022-10-31T03:07:47;14.50;99.90
34542;DHT22;20784;51.332;12.410;2022-10-31T03:13:05;14.50;99.90
34542;DHT22;20784;51.332;12.410;2022-10-31T03:15:32;14.40;99.90
34542;DHT22;20784;51.332;12.410;2022-10-31T03:20:41;14.30;99.90
34542;DHT22;20784;51.332;12.410;2022-10-31T03:23:14;14.30;99.90
34542;DHT22;20784;51.332;12.410;2022-10-31T03:25:41;14.30;99.90
34542;DHT22;20784;51.332;12.410;2022-10-31T03:28:09;14.30;99.90
34542;DHT22;20784;51.332;12.410;2022-10-31T03:30:37;14.30;99.90
34542;DHT22;20784;51.332;12.410;2022-10-31T03:33:11;14.30;99.90
34542;DHT22;20784;51.332;12.410;2022-10-31T03:35:42;14.30;99.90
34542;DHT22;20784;51.332;12.410;2022-10-31T03:38:11;14.10;99.90
34542;DHT22;20784;51.332;12.410;2022-10-31T03:40:39;14.30;99.90
34542;DHT22;20784;51.332;12.410;2022-10-31T03:43:09;14.30;99.90
34542;DHT22;20784;51.332;12.410;2022-10-31T03:45:41;14.20;99.90
34542;DHT22;20784;51.332;12.410;2022-10-31T03:48:08;14.20;99.90
34542;DHT22;20784;51.332;12.410;2022-10-31T03:51:03;14.20;99.90
34542;DHT22;20784;51.332;12.410;2022-10-31T03:53:38;14.20;99.90
34542;DHT22;20784;51.332;12.410;2022-10-31T03:56:57;14.10;99.90
34542;DHT22;20784;51.332;12.410;2022-10-31T03:59:05;14.10;99.90
34542;DHT22;20784;51.332;12.410;2022-10-31T04:01:34;13.90;99.90
34542;DHT22;20784;51.332;12.410;2022-10-31T04:04:03;14.00;99.90
34542;DHT22;20784;51.332;12.410;2022-10-31T04:06:30;14.00;99.90
34542;DHT22;20784;51.332;12.410;2022-10-31T04:08:59;13.90;99.90
34542;DHT22;20784;51.332;12.410;2022-10-31T04:11:30;13.90;99.90
34542;DHT22;20784;51.332;12.410;2022-10-31T04:13:57;13.90;99.90
34542;DHT22;20784;51.332;12.410;2022-10-31T04:16:24;14.00;99.90
34542;DHT22;20784;51.332;12.410;2022-10-31T04:18:51;14.00;99.90
34542;DHT22;20784;51.332;12.410;2022-10-31T04:21:17;14.00;99.90
34542;DHT22;20784;51.332;12.410;2022-10-31T04:23:43;14.00;99.90
34542;DHT22;20784;51.332;12.410;2022-10-31T04:26:11;13.90;99.90
34542;DHT22;20784;51.332;12.410;2022-10-31T04:28:37;14.00;99.90
34542;DHT22;20784;51.332;12.410;2022-10-31T04:31:06;13.90;99.90
34542;DHT22;20784;51.332;12.410;2022-10-31T04:33:31;13.90;99.90
34542;DHT22;20784;51.332;12.410;2022-10-31T04:35:57;13.80;99.90
34542;DHT22;20784;51.332;12.410;2022-10-31T04:38:23;13.80;99.90
34542;DHT22;20784;51.332;12.410;2022-10-31T04:40:48;13.70;99.90
34542;DHT22;20784;51.332;12.410;2022-10-31T04:43:14;13.70;99.90
34542;DHT22;20784;51.332;12.410;2022-10-31T04:45:39;13.60;99.90
34542;DHT22;20784;51.332;12.410;2022-10-31T04:48:05;13.60;99.90
34542;DHT22;20784;51.332;12.410;2022-10-31T04:50:31;13.50;99.90
34542;DHT22;20784;51.332;12.410;2022-10-31T04:52:56;13.50;99.90
34542;DHT22;20784;51.332;12.410;2022-10-31T04:55:22;13.50;99.90
34542;DHT22;20784;51.332;12.410;2022-10-31T04:57:48;13.50;99.90
34542;DHT22;20784;51.332;12.410;2022-10-31T05:00:16;13.50;99.90
34542;DHT22;20784;51.332;12.410;2022-10-31T05:02:47;13.40;99.90
34542;DHT22;20784;51.332;12.410;2022-10-31T05:05:14;13.50;99.90
34542;DHT22;20784;51.332;12.410;2022-10-31T05:07:44;13.50;99.90
34542;DHT22;20784;51.332;12.410;2022-10-31T05:10:15;13.50;99.90
34542;DHT22;20784;51.332;12.410;2022-10-31T05:12:48;13.40;99.90
34542;DHT22;20784;51.332;12.410;2022-10-31T05:15:15;13.40;99.90
34542;DHT22;20784;51.332;12.410;2022-10-31T05:17:41;13.40;99.90
34542;DHT22;20784;51.332;12.410;2022-10-31T05:20:07;13.40;99.90
34542;DHT22;20784;51.332;12.410;2022-10-31T05:22:32;13.40;99.90
34542;DHT22;20784;51.332;12.410;2022-10-31T05:24:58;13.30;99.90
34542;DHT22;20784;51.332;12.410;2022-10-31T05:27:24;13.30;99.90
34542;DHT22;20784;51.332;12.410;2022-10-31T05:29:49;13.30;99.90
34542;DHT22;20784;51.332;12.410;2022-10-31T05:32:15;13.30;99.90
34542;DHT22;20784;51.332;12.410;2022-10-31T05:34:41;13.30;99.90
34542;DHT22;20784;51.332;12.410;2022-10-31T05:37:06;13.20;99.90
34542;DHT22;20784;51.332;12.410;2022-10-31T05:39:32;13.20;99.90
34542;DHT22;20784;51.332;12.410;2022-10-31T05:41:57;13.20;99.90
34542;DHT22;20784;51.332;12.410;2022-10-31T05:44:23;13.30;99.90
34542;DHT22;20784;51.332;12.410;2022-10-31T05:46:48;13.20;99.90
34542;DHT22;20784;51.332;12.410;2022-10-31T05:49:14;13.30;99.90
34542;DHT22;20784;51.332;12.410;2022-10-31T05:51:40;13.20;99.90
34542;DHT22;20784;51.332;12.410;2022-10-31T05:54:05;13.30;99.90
34542;DHT22;20784;51.332;12.410;2022-10-31T05:56:31;13.20;99.90
34542;DHT22;20784;51.332;12.410;2022-10-31T05:58:56;13.20;99.90
34542;DHT22;20784;51.332;12.410;2022-10-31T06:01:22;13.10;99.90
34542;DHT22;20784;51.332;12.410;2022-10-31T06:03:48;13.10;99.90
34542;DHT22;20784;51.332;12.410;2022-10-31T06:06:13;13.10;99.90
34542;DHT22;20784;51.332;12.410;2022-10-31T06:08:40;13.30;99.90
34542;DHT22;20784;51.332;12.410;2022-10-31T06:11:08;13.20;99.90
34542;DHT22;20784;51.332;12.410;2022-10-31T06:13:33;13.30;99.90
34542;DHT22;20784;51.332;12.410;2022-10-31T06:15:59;13.20;99.90
34542;DHT22;20784;51.332;12.410;2022-10-31T06:18:24;13.20;99.90
34542;DHT22;20784;51.332;12.410;2022-10-31T06:20:50;13.30;99.90
34542;DHT22;20784;51.332;12.410;2022-10-31T06:23:16;13.30;99.90
34542;DHT22;20784;51.332;12.410;2022-10-31T06:25:41;13.30;99.90
34542;DHT22;20784;51.332;12.410;2022-10-31T06:28:07;13.20;99.90
34542;DHT22;20784;51.332;12.410;2022-10-31T06:30:35;13.20;99.90
34542;DHT22;20784;51.332;12.410;2022-10-31T06:33:04;13.20;99.90
34542;DHT22;20784;51.332;12.410;2022-10-31T06:35:31;13.30;99.90
34542;DHT22;20784;51.332;12.410;2022-10-31T06:37:56;13.30;99.90
34542;DHT22;20784;51.332;12.410;2022-10-31T06:40:25;13.40;99.90
34542;DHT22;20784;51.332;12.410;2022-10-31T06:43:00;13.40;99.90
34542;DHT22;20784;51.332;12.410;2022-10-31T06:45:26;13.70;99.90
34542;DHT22;20784;51.332;12.410;2022-10-31T06:47:55;13.80;99.90
34542;DHT22;20784;51.332;12.410;2022-10-31T06:50:22;13.90;99.90
34542;DHT22;20784;51.332;12.410;2022-10-31T06:52:56;14.10;99.90
34542;DHT22;20784;51.332;12.410;2022-10-31T06:55:22;14.20;99.90
34542;DHT22;20784;51.332;12.410;2022-10-31T06:57:57;14.30;99.90
34542;DHT22;20784;51.332;12.410;2022-10-31T07:00:24;14.30;99.90
34542;DHT22;20784;51.332;12.410;2022-10-31T07:02:54;14.70;99.90
34542;DHT22;20784;51.332;12.410;2022-10-31T07:05:20;14.90;99.90
34542;DHT22;20784;51.332;12.410;2022-10-31T07:07:45;15.20;99.90
34542;DHT22;20784;51.332;12.410;2022-10-31T07:10:14;15.60;99.90
34542;DHT22;20784;51.332;12.410;2022-10-31T07:12:39;15.90;99.90
34542;DHT22;20784;51.332;12.410;2022-10-31T07:15:06;16.30;99.90
34542;DHT22;20784;51.332;12.410;2022-10-31T07:17:32;16.70;99.90
34542;DHT22;20784;51.332;12.410;2022-10-31T07:19:58;17.00;99.90
34542;DHT22;20784;51.332;12.410;2022-10-31T07:22:23;17.60;99.90
34542;DHT22;20784;51.332;12.410;2022-10-31T07:24:49;17.90;99.90
34542;DHT22;20784;51.332;12.410;2022-10-31T07:27:14;18.20;99.90
34542;DHT22;20784;51.332;12.410;2022-10-31T07:29:40;18.60;99.90
34542;DHT22;20784;51.332;12.410;2022-10-31T07:32:05;18.70;99.90
34542;DHT22;20784;51.332;12.410;2022-10-31T07:34:31;18.70;99.90
34542;DHT22;20784;51.332;12.410;2022-10-31T07:36:59;18.90;99.90
34542;DHT22;20784;51.332;12.410;2022-10-31T07:39:25;19.30;99.90
34542;DHT22;20784;51.332;12.410;2022-10-31T07:41:50;20.20;99.90
34542;DHT22;20784;51.332;12.410;2022-10-31T07:44:16;21.70;99.90
34542;DHT22;20784;51.332;12.410;2022-10-31T07:46:42;22.60;99.90
34542;DHT22;20784;51.332;12.410;2022-10-31T07:49:07;23.70;99.90
34542;DHT22;20784;51.332;12.410;2022-10-31T07:51:33;24.90;99.90
34542;DHT22;20784;51.332;12.410;2022-10-31T07:53:59;25.40;99.90
34542;DHT22;20784;51.332;12.410;2022-10-31T07:56:24;26.10;99.90
34542;DHT22;20784;51.332;12.410;2022-10-31T07:58:55;26.60;99.90
34542;DHT22;20784;51.332;12.410;2022-10-31T08:01:20;27.10;99.90
34542;DHT22;20784;51.332;12.410;2022-10-31T08:03:46;27.70;99.90
34542;DHT22;20784;51.332;12.410;2022-10-31T08:06:35;27.90;99.90
34542;DHT22;20784;51.332;12.410;2022-10-31T08:09:01;28.40;99.90
34542;DHT22;20784;51.332;12.410;2022-10-31T08:11:27;28.70;99.90
34542;DHT22;20784;51.332;12.410;2022-10-31T08:13:52;29.60;99.90
34542;DHT22;20784;51.332;12.410;2022-10-31T08:16:20;29.60;99.90
34542;DHT22;20784;51.332;12.410;2022-10-31T08:18:46;29.80;98.50
34542;DHT22;20784;51.332;12.410;2022-10-31T08:21:24;30.30;98.20
34542;DHT22;20784;51.332;12.410;2022-10-31T08:23:49;30.30;97.00
34542;DHT22;20784;51.332;12.410;2022-10-31T08:26:20;30.60;96.10
34542;DHT22;20784;51.332;12.410;2022-10-31T08:29:01;30.50;95.40
34542;DHT22;20784;51.332;12.410;2022-10-31T08:31:43;30.60;94.80
34542;DHT22;20784;51.332;12.410;2022-10-31T08:34:14;31.00;93.00
34542;DHT22;20784;51.332;12.410;2022-10-31T08:37:00;31.10;93.10
34542;DHT22;20784;51.332;12.410;2022-10-31T08:39:59;31.20;92.60
34542;DHT22;20784;51.332;12.410;2022-10-31T08:42:37;31.20;92.60
34542;DHT22;20784;51.332;12.410;2022-10-31T08:45:03;31.20;92.50
34542;DHT22;20784;51.332;12.410;2022-10-31T08:47:29;31.60;91.50
34542;DHT22;20784;51.332;12.410;2022-10-31T08:49:54;31.60;90.80
34542;DHT22;20784;51.332;12.410;2022-10-31T08:52:23;31.60;90.70
34542;DHT22;20784;51.332;12.410;2022-10-31T08:54:49;31.10;91.20
34542;DHT22;20784;51.332;12.410;2022-10-31T08:57:15;31.10;91.10
34542;DHT22;20784;51.332;12.410;2022-10-31T08:59:40;31.90;91.50
34542;DHT22;20784;51.332;12.410;2022-10-31T09:02:07;31.20;91.00
34542;DHT22;20784;51.332;12.410;2022-10-31T09:04:33;30.80;91.20
34542;DHT22;20784;51.332;12.410;2022-10-31T09:06:58;30.50;91.30
34542;DHT22;20784;51.332;12.410;2022-10-31T09:09:24;29.90;92.50
34542;DHT22;20784;51.332;12.410;2022-10-31T09:11:50;29.30;94.10
34542;DHT22;20784;51.332;12.410;2022-10-31T09:14:15;29.10;94.50
34542;DHT22;20784;51.332;12.410;2022-10-31T09:16:41;29.20;95.20
34542;DHT22;20784;51.332;12.410;2022-10-31T09:19:07;29.70;95.30
34542;DHT22;20784;51.332;12.410;2022-10-31T09:21:33;29.20;95.70
34542;DHT22;20784;51.332;12.410;2022-10-31T09:23:58;28.90;96.50
34542;DHT22;20784;51.332;12.410;2022-10-31T09:26:24;29.00;96.90
34542;DHT22;20784;51.332;12.410;2022-10-31T09:28:53;29.30;97.10
34542;DHT22;20784;51.332;12.410;2022-10-31T09:31:30;29.60;96.60
34542;DHT22;20784;51.332;12.410;2022-10-31T09:34:01;30.80;96.30
34542;DHT22;20784;51.332;12.410;2022-10-31T09:36:27;31.30;94.50
34542;DHT22;20784;51.332;12.410;2022-10-31T09:38:56;31.90;94.00
34542;DHT22;20784;51.332;12.410;2022-10-31T09:41:46;32.20;93.40
34542;DHT22;20784;51.332;12.410;2022-10-31T09:44:30;32.50;92.70
34542;DHT22;20784;51.332;12.410;2022-10-31T09:47:26;33.00;91.90
34542;DHT22;20784;51.332;12.410;2022-10-31T09:50:14;33.20;91.40
34542;DHT22;20784;51.332;12.410;2022-10-31T09:52:46;33.30;91.20
34542;DHT22;20784;51.332;12.410;2022-10-31T09:55:19;32.70;91.60
34542;DHT22;20784;51.332;12.410;2022-10-31T09:57:46;32.90;91.90
34542;DHT22;20784;51.332;12.410;2022-10-31T10:00:21;32.60;92.40
34542;DHT22;20784;51.332;12.410;2022-10-31T10:02:53;32.40;92.10
34542;DHT22;20784;51.332;12.410;2022-10-31T10:05:31;33.20;92.30
34542;DHT22;20784;51.332;12.410;2022-10-31T10:08:18;33.40;90.50
34542;DHT22;20784;51.332;12.410;2022-10-31T10:11:25;32.90;90.90
34542;DHT22;20784;51.332;12.410;2022-10-31T10:14:01;33.20;91.90
34542;DHT22;20784;51.332;12.410;2022-10-31T10:17:06;34.00;90.70
34542;DHT22;20784;51.332;12.410;2022-10-31T10:25:28;31.70;93.20
34542;DHT22;20784;51.332;12.410;2022-10-31T10:31:16;31.90;92.70
34542;DHT22;20784;51.332;12.410;2022-10-31T10:34:10;32.40;92.60
34542;DHT22;20784;51.332;12.410;2022-10-31T10:36:51;33.30;91.40
34542;DHT22;20784;51.332;12.410;2022-10-31T10:39:39;33.90;90.50
34542;DHT22;20784;51.332;12.410;2022-10-31T10:42:13;33.80;90.30
34542;DHT22;20784;51.332;12.410;2022-10-31T10:44:58;33.60;90.60
34542;DHT22;20784;51.332;12.410;2022-10-31T10:47:55;33.50;90.80
34542;DHT22;20784;51.332;12.410;2022-10-31T10:50:33;33.70;90.40
34542;DHT22;20784;51.332;12.410;2022-10-31T10:53:15;33.50;90.20
34542;DHT22;20784;51.332;12.410;2022-10-31T10:56:00;33.50;90.20
34542;DHT22;20784;51.332;12.410;2022-10-31T10:58:40;33.30;90.70
34542;DHT22;20784;51.332;12.410;2022-10-31T11:01:14;33.80;89.30
34542;DHT22;20784;51.332;12.410;2022-10-31T11:03:41;34.40;88.80
34542;DHT22;20784;51.332;12.410;2022-10-31T11:06:23;34.70;87.10
34542;DHT22;20784;51.332;12.410;2022-10-31T11:08:52;34.40;87.70
34542;DHT22;20784;51.332;12.410;2022-10-31T11:11:26;34.90;88.30
34542;DHT22;20784;51.332;12.410;2022-10-31T11:14:04;34.90;85.30
34542;DHT22;20784;51.332;12.410;2022-10-31T11:16:36;33.90;87.40
34542;DHT22;20784;51.332;12.410;2022-10-31T11:21:37;32.80;89.60
34542;DHT22;20784;51.332;12.410;2022-10-31T11:26:50;33.10;90.10
34542;DHT22;20784;51.332;12.410;2022-10-31T11:29:22;33.20;90.00
34542;DHT22;20784;51.332;12.410;2022-10-31T11:31:52;33.30;89.70
34542;DHT22;20784;51.332;12.410;2022-10-31T11:34:32;33.00;90.00
34542;DHT22;20784;51.332;12.410;2022-10-31T11:37:22;32.30;90.80
34542;DHT22;20784;51.332;12.410;2022-10-31T11:39:57;31.80;91.30
34542;DHT22;20784;51.332;12.410;2022-10-31T11:42:27;31.90;91.80
34542;DHT22;20784;51.332;12.410;2022-10-31T11:44:54;31.70;92.20
34542;DHT22;20784;51.332;12.410;2022-10-31T11:47:51;31.30;92.50
34542;DHT22;20784;51.332;12.410;2022-10-31T11:50:28;30.60;93.10
34542;DHT22;20784;51.332;12.410;2022-10-31T11:53:09;30.20;93.80
34542;DHT22;20784;51.332;12.410;2022-10-31T11:55:39;29.90;94.00
34542;DHT22;20784;51.332;12.410;2022-10-31T12:01:30;29.50;94.80
34542;DHT22;20784;51.332;12.410;2022-10-31T12:04:10;29.40;95.30
34542;DHT22;20784;51.332;12.410;2022-10-31T12:06:43;28.70;96.90
34542;DHT22;20784;51.332;12.410;2022-10-31T12:09:33;28.50;97.20
34542;DHT22;20784;51.332;12.410;2022-10-31T12:12:21;28.00;98.00
34542;DHT22;20784;51.332;12.410;2022-10-31T12:15:20;27.80;98.20
34542;DHT22;20784;51.332;12.410;2022-10-31T12:23:55;26.30;99.90
34542;DHT22;20784;51.332;12.410;2022-10-31T12:30:13;25.90;99.90
34542;DHT22;20784;51.332;12.410;2022-10-31T12:38:48;24.90;99.90
34542;DHT22;20784;51.332;12.410;2022-10-31T12:41:25;24.50;99.90
34542;DHT22;20784;51.332;12.410;2022-10-31T12:49:17;23.50;99.90
34542;DHT22;20784;51.332;12.410;2022-10-31T12:51:49;23.20;99.90
34542;DHT22;20784;51.332;12.410;2022-10-31T13:00:48;23.00;99.90
34542;DHT22;20784;51.332;12.410;2022-10-31T13:04:12;22.90;99.90
34542;DHT22;20784;51.332;12.410;2022-10-31T13:06:53;22.90;99.90
34542;DHT22;20784;51.332;12.410;2022-10-31T13:09:54;22.80;99.90
34542;DHT22;20784;51.332;12.410;2022-10-31T13:12:19;22.50;99.90
34542;DHT22;20784;51.332;12.410;2022-10-31T13:14:53;22.10;99.90
34542;DHT22;20784;51.332;12.410;2022-10-31T13:17:35;22.10;99.90
34542;DHT22;20784;51.332;12.410;2022-10-31T13:21:24;22.00;99.90
34542;DHT22;20784;51.332;12.410;2022-10-31T13:23:33;21.70;99.90
34542;DHT22;20784;51.332;12.410;2022-10-31T13:26:08;21.60;99.90
34542;DHT22;20784;51.332;12.410;2022-10-31T13:28:46;21.60;99.90
34542;DHT22;20784;51.332;12.410;2022-10-31T13:31:12;21.60;99.90
34542;DHT22;20784;51.332;12.410;2022-10-31T13:42:10;21.20;99.90
34542;DHT22;20784;51.332;12.410;2022-10-31T13:44:44;21.20;99.90
34542;DHT22;20784;51.332;12.410;2022-10-31T13:47:29;21.00;99.90
34542;DHT22;20784;51.332;12.410;2022-10-31T13:50:21;21.00;99.90
34542;DHT22;20784;51.332;12.410;2022-10-31T13:52:50;21.00;99.90
34542;DHT22;20784;51.332;12.410;2022-10-31T13:56:13;20.80;99.90
34542;DHT22;20784;51.332;12.410;2022-10-31T14:01:33;20.70;99.90
34542;DHT22;20784;51.332;12.410;2022-10-31T14:04:20;20.70;99.90
34542;DHT22;20784;51.332;12.410;2022-10-31T14:07:34;20.70;99.90
34542;DHT22;20784;51.332;12.410;2022-10-31T14:10:46;20.60;99.90
34542;DHT22;20784;51.332;12.410;2022-10-31T14:13:32;20.50;99.90
34542;DHT22;20784;51.332;12.410;2022-10-31T14:18:47;20.40;99.90
34542;DHT22;20784;51.332;12.410;2022-10-31T14:21:41;20.30;99.90
34542;DHT22;20784;51.332;12.410;2022-10-31T14:26:59;20.10;99.90
34542;DHT22;20784;51.332;12.410;2022-10-31T14:29:32;20.10;99.90
34542;DHT22;20784;51.332;12.410;2022-10-31T14:32:37;20.00;99.90
34542;DHT22;20784;51.332;12.410;2022-10-31T14:35:14;19.90;99.90
34542;DHT22;20784;51.332;12.410;2022-10-31T14:46:02;19.70;99.90
34542;DHT22;20784;51.332;12.410;2022-10-31T14:49:05;19.60;99.90
34542;DHT22;20784;51.332;12.410;2022-10-31T14:51:40;19.60;99.90
34542;DHT22;20784;51.332;12.410;2022-10-31T14:54:25;19.50;99.90
34542;DHT22;20784;51.332;12.410;2022-10-31T14:56:59;19.50;99.90
34542;DHT22;20784;51.332;12.410;2022-10-31T14:59:32;19.50;99.90
34542;DHT22;20784;51.332;12.410;2022-10-31T15:02:07;19.40;99.90
34542;DHT22;20784;51.332;12.410;2022-10-31T15:04:43;19.30;99.90
34542;DHT22;20784;51.332;12.410;2022-10-31T15:07:27;19.20;99.90
34542;DHT22;20784;51.332;12.410;2022-10-31T15:10:15;19.10;99.90
34542;DHT22;20784;51.332;12.410;2022-10-31T15:12:44;19.10;99.90
34542;DHT22;20784;51.332;12.410;2022-10-31T15:15:24;19.00;99.90
34542;DHT22;20784;51.332;12.410;2022-10-31T15:18:04;18.90;99.90
34542;DHT22;20784;51.332;12.410;2022-10-31T15:20:41;18.90;99.90
34542;DHT22;20784;51.332;12.410;2022-10-31T15:23:20;18.80;99.90
34542;DHT22;20784;51.332;12.410;2022-10-31T15:25:47;18.80;99.90
34542;DHT22;20784;51.332;12.410;2022-10-31T15:28:15;18.70;99.90
34542;DHT22;20784;51.332;12.410;2022-10-31T15:30:50;18.60;99.90
34542;DHT22;20784;51.332;12.410;2022-10-31T15:33:28;18.50;99.90
34542;DHT22;20784;51.332;12.410;2022-10-31T15:35:55;18.40;99.90
34542;DHT22;20784;51.332;12.410;2022-10-31T15:38:21;18.40;99.90
34542;DHT22;20784;51.332;12.410;2022-10-31T15:41:03;18.40;99.90
34542;DHT22;20784;51.332;12.410;2022-10-31T15:43:34;18.30;99.90
34542;DHT22;20784;51.332;12.410;2022-10-31T15:46:00;18.00;99.90
34542;DHT22;20784;51.332;12.410;2022-10-31T15:48:27;18.30;99.90
34542;DHT22;20784;51.332;12.410;2022-10-31T15:50:57;18.10;99.90
34542;DHT22;20784;51.332;12.410;2022-10-31T15:53:45;18.10;99.90
34542;DHT22;20784;51.332;12.410;2022-10-31T15:56:18;17.90;99.90
34542;DHT22;20784;51.332;12.410;2022-10-31T15:58:48;17.80;99.90
34542;DHT22;20784;51.332;12.410;2022-10-31T16:01:23;17.70;99.90
34542;DHT22;20784;51.332;12.410;2022-10-31T16:06:28;17.50;99.90
34542;DHT22;20784;51.332;12.410;2022-10-31T16:08:53;17.40;99.90
34542;DHT22;20784;51.332;12.410;2022-10-31T16:14:24;17.40;99.90
34542;DHT22;20784;51.332;12.410;2022-10-31T16:17:01;17.30;99.90
34542;DHT22;20784;51.332;12.410;2022-10-31T16:19:35;17.40;99.90
34542;DHT22;20784;51.332;12.410;2022-10-31T16:22:05;17.30;99.90
34542;DHT22;20784;51.332;12.410;2022-10-31T16:24:35;17.30;99.90
34542;DHT22;20784;51.332;12.410;2022-10-31T16:27:18;17.30;99.90
34542;DHT22;20784;51.332;12.410;2022-10-31T16:29:56;17.20;99.90
34542;DHT22;20784;51.332;12.410;2022-10-31T16:32:26;17.20;99.90
34542;DHT22;20784;51.332;12.410;2022-10-31T16:35:16;17.20;99.90
34542;DHT22;20784;51.332;12.410;2022-10-31T16:37:51;17.20;99.90
34542;DHT22;20784;51.332;12.410;2022-10-31T16:40:24;17.10;99.90
34542;DHT22;20784;51.332;12.410;2022-10-31T16:43:02;17.00;99.90
34542;DHT22;20784;51.332;12.410;2022-10-31T16:45:31;16.90;99.90
34542;DHT22;20784;51.332;12.410;2022-10-31T16:48:11;16.90;99.90
34542;DHT22;20784;51.332;12.410;2022-10-31T16:50:51;16.80;99.90
34542;DHT22;20784;51.332;12.410;2022-10-31T16:53:20;16.90;99.90
34542;DHT22;20784;51.332;12.410;2022-10-31T16:56:30;16.80;99.90
34542;DHT22;20784;51.332;12.410;2022-10-31T16:59:16;16.70;99.90
34542;DHT22;20784;51.332;12.410;2022-10-31T17:01:44;16.80;99.90
34542;DHT22;20784;51.332;12.410;2022-10-31T17:04:13;16.70;99.90
34542;DHT22;20784;51.332;12.410;2022-10-31T17:06:42;16.50;99.90
34542;DHT22;20784;51.332;12.410;2022-10-31T17:09:11;16.60;99.90
34542;DHT22;20784;51.332;12.410;2022-10-31T17:11:46;16.50;99.90
34542;DHT22;20784;51.332;12.410;2022-10-31T17:14:12;16.60;99.90
34542;DHT22;20784;51.332;12.410;2022-10-31T17:16:38;16.50;99.90
34542;DHT22;20784;51.332;12.410;2022-10-31T17:19:13;16.60;99.90
34542;DHT22;20784;51.332;12.410;2022-10-31T17:21:40;16.60;99.90
34542;DHT22;20784;51.332;12.410;2022-10-31T17:24:18;16.50;99.90